This is the latest recevied weather packets stored in our database for station/object DB0GIS-11. If no packets are shown the sender has not sent any weather packets the latest 10 day(s).
| Time | Temp. | Humidity | Pressure | Rain* | Wind** | Luminosity | Snow |
|---|---|---|---|---|---|---|---|
| 1777578445 | 12.78° C | 42% | 1023.9 hPa | 0 mm | - | - | - |
| 1777577251 | 13.33° C | 40% | 1023.6 hPa | 0 mm | - | - | - |
| 1777576652 | 13.89° C | 40% | 1023.5 hPa | 0 mm | - | - | - |
| 1777576046 | 14.44° C | 39% | 1023.5 hPa | 0 mm | - | - | - |
| 1777573662 | 17.22° C | 35% | 1023.2 hPa | 0 mm | - | - | - |
| 1777572456 | 16.11° C | 35% | 1023.2 hPa | 0 mm | - | - | - |
| 1777571851 | 16.11° C | 35% | 1023.1 hPa | 0 mm | - | - | - |
| 1777570654 | 16.67° C | 34% | 1023.2 hPa | 0 mm | - | - | - |
| 1777568849 | 17.22° C | 32% | 1023 hPa | 0 mm | - | - | - |
| 1777567059 | 17.22° C | 31% | 1023 hPa | 0 mm | - | - | - |
| 1777566448 | 17.22° C | 31% | 1023.2 hPa | 0 mm | - | - | - |
| 1777562856 | 17.22° C | 31% | 1023.6 hPa | 0 mm | - | - | - |
| 1777561653 | 17.22° C | 31% | 1023.5 hPa | 0 mm | - | - | - |
| 1777561048 | 17.22° C | 31% | 1023.4 hPa | 0 mm | - | - | - |
| 1777558061 | 16.67° C | 29% | 1024.2 hPa | 0 mm | - | - | - |
| 1777557460 | 16.67° C | 30% | 1024.1 hPa | 0 mm | - | - | - |
| 1777553847 | 16.11° C | 32% | 1024.9 hPa | 0 mm | - | - | - |
| 1777551457 | 15.56° C | 32% | 1025.2 hPa | 0 mm | - | - | - |
| 1777550259 | 15.56° C | 31% | 1025.4 hPa | 0 mm | - | - | - |
| 1777549053 | 15.56° C | 33% | 1025.7 hPa | 0 mm | - | - | - |
| 1777548473 | 15.56° C | 32% | 1025.8 hPa | 0 mm | - | - | - |
| 1777546054 | 15° C | 34% | 1026.4 hPa | 0 mm | - | - | - |
| 1777544879 | 14.44° C | 35% | 1026.6 hPa | 0 mm | - | - | - |
| 1777542458 | 13.89° C | 35% | 1026.7 hPa | 0 mm | - | - | - |
| 1777541271 | 13.33° C | 35% | 1026.7 hPa | 0 mm | - | - | - |
* Rain latest hour (hover to see other rain measurements)
** Current wind speed in m/s (hover to see current wind gust speed)